Time;durP1;ratioP1;P1;durP2;ratioP2;P2;SDS_P1;SDS_P2;PMS_P1;PMS_P2;Temp;Humidity;BMP_temperature;BMP_pressure;BME280_temperature;BME280_humidity;BME280_pressure;Samples;Min_cycle;Max_cycle;Signal;HPM_P1;HPM_P2
2022/10/09 00:00:44;;;;;;;15.73;7.50;;;;;;;10.21;100.00;100273.31;4180985;28;20238;-75
2022/10/09 00:03:11;;;;;;;17.27;8.23;;;;;;;10.25;100.00;100274.69;4175620;28;20309;-76
2022/10/09 00:05:38;;;;;;;15.60;7.80;;;;;;;10.24;100.00;100276.53;4167971;28;21673;-76
2022/10/09 00:08:05;;;;;;;17.03;6.40;;;;;;;10.26;100.00;100285.19;4183031;28;20336;-76
2022/10/09 00:10:31;;;;;;;18.07;6.90;;;;;;;10.38;100.00;100285.88;4187122;28;20241;-78
2022/10/09 00:12:58;;;;;;;21.17;6.67;;;;;;;10.39;100.00;100289.38;4205531;28;20314;-76
2022/10/09 00:15:25;;;;;;;12.90;6.00;;;;;;;10.41;100.00;100284.72;4173556;28;20264;-75
2022/10/09 00:17:51;;;;;;;22.23;6.50;;;;;;;10.46;100.00;100293.94;4147272;28;21738;-75
2022/10/09 00:20:18;;;;;;;13.40;6.10;;;;;;;10.48;100.00;100289.31;4199279;28;21011;-77
2022/10/09 00:22:44;;;;;;;16.47;6.47;;;;;;;10.36;100.00;100295.81;4211367;28;20537;-76
2022/10/09 00:25:11;;;;;;;12.70;6.47;;;;;;;10.41;100.00;100306.84;4193929;28;20321;-77
2022/10/09 00:27:38;;;;;;;20.37;6.50;;;;;;;10.38;100.00;100299.16;4204086;28;22779;-76
2022/10/09 00:30:05;;;;;;;16.77;6.20;;;;;;;10.39;100.00;100300.00;4210684;28;22106;-76
2022/10/09 00:32:32;;;;;;;15.87;5.73;;;;;;;10.39;100.00;100294.69;4209267;28;20324;-79
2022/10/09 00:34:58;;;;;;;13.30;5.50;;;;;;;10.31;100.00;100279.47;4214714;28;20301;-77
2022/10/09 00:37:25;;;;;;;14.87;5.07;;;;;;;10.18;100.00;100282.41;4207795;28;20288;-77
2022/10/09 00:39:52;;;;;;;16.70;5.80;;;;;;;10.07;100.00;100282.63;4194924;28;20250;-77
2022/10/09 00:42:18;;;;;;;13.00;5.57;;;;;;;9.99;100.00;100285.97;4174087;28;20246;-76
2022/10/09 00:44:56;;;;;;;13.10;5.20;;;;;;;9.98;100.00;100278.16;4191952;28;20364;-77
2022/10/09 00:47:28;;;;;;;9.23;5.03;;;;;;;9.88;100.00;100278.19;4206053;28;20585;-77
2022/10/09 00:50:09;;;;;;;11.60;6.10;;;;;;;9.77;100.00;100281.84;4205556;28;20317;-77
2022/10/09 00:52:36;;;;;;;12.77;5.73;;;;;;;9.72;100.00;100284.94;4201670;28;20567;-75
2022/10/09 00:55:04;;;;;;;13.87;5.50;;;;;;;9.67;100.00;100289.03;4192012;28;23009;-77
2022/10/09 00:57:31;;;;;;;14.83;5.80;;;;;;;9.57;100.00;100296.97;4187219;28;20242;-76
2022/10/09 01:00:01;;;;;;;13.60;6.10;;;;;;;9.60;100.00;100301.16;4168654;28;20654;-76
2022/10/09 01:02:28;;;;;;;12.80;6.00;;;;;;;9.55;100.00;100303.41;4198480;28;20307;-74
2022/10/09 01:04:55;;;;;;;14.17;6.67;;;;;;;9.52;100.00;100304.53;4162737;28;20239;-76
2022/10/09 01:07:26;;;;;;;12.97;5.83;;;;;;;9.54;100.00;100299.94;4178579;28;23751;-75
2022/10/09 01:10:08;;;;;;;15.47;6.00;;;;;;;9.43;100.00;100310.69;4188430;28;20693;-75
2022/10/09 01:12:57;;;;;;;16.00;6.67;;;;;;;9.36;100.00;100317.56;4179170;28;22703;-77
2022/10/09 01:15:32;;;;;;;15.20;7.67;;;;;;;9.39;100.00;100314.59;4185423;28;21517;-77
2022/10/09 01:18:17;;;;;;;14.73;7.40;;;;;;;9.38;100.00;100315.59;4168929;28;20249;-75
2022/10/09 01:21:10;;;;;;;14.63;7.37;;;;;;;9.27;100.00;100328.06;4174025;28;20282;-76
2022/10/09 01:24:02;;;;;;;16.47;7.90;;;;;;;9.22;100.00;100327.59;4165663;28;21501;-76
2022/10/09 01:26:55;;;;;;;14.73;8.27;;;;;;;9.21;100.00;100322.44;4176615;28;20231;-76
2022/10/09 01:29:23;;;;;;;17.50;8.03;;;;;;;9.24;100.00;100328.31;4177884;28;20247;-75
2022/10/09 01:31:50;;;;;;;18.63;8.70;;;;;;;9.13;100.00;100325.81;4159372;28;21230;-76
2022/10/09 01:34:18;;;;;;;19.73;7.73;;;;;;;9.13;100.00;100331.13;4161021;28;20375;-76
2022/10/09 01:36:45;;;;;;;19.97;8.83;;;;;;;9.14;100.00;100332.78;4159871;28;20429;-78
2022/10/09 01:39:17;;;;;;;16.90;7.37;;;;;;;9.09;100.00;100324.41;4171339;28;20525;-75
2022/10/09 01:41:45;;;;;;;19.37;8.43;;;;;;;9.01;100.00;100327.75;4167422;28;20482;-78
2022/10/09 01:44:20;;;;;;;14.70;7.87;;;;;;;9.04;100.00;100337.25;4167806;28;20240;-76
2022/10/09 01:46:46;;;;;;;14.73;7.63;;;;;;;9.01;100.00;100337.50;4173720;28;20241;-76
2022/10/09 01:49:33;;;;;;;17.30;7.77;;;;;;;8.92;100.00;100341.84;4181252;28;20624;-76
2022/10/09 01:52:43;;;;;;;14.97;7.90;;;;;;;8.82;100.00;100336.50;4166445;28;20460;-75
2022/10/09 01:55:19;;;;;;;15.40;7.47;;;;;;;8.69;100.00;100341.22;4136791;28;20230;-75
2022/10/09 01:57:51;;;;;;;19.50;7.93;;;;;;;8.62;100.00;100343.56;4152156;28;25750;-75
2022/10/09 02:00:18;;;;;;;16.27;8.57;;;;;;;8.61;100.00;100355.13;4162147;28;21140;-76
2022/10/09 02:02:45;;;;;;;18.10;8.07;;;;;;;8.56;100.00;100354.69;4158548;28;20302;-76
2022/10/09 02:05:19;;;;;;;16.47;7.67;;;;;;;8.50;100.00;100363.22;4157098;28;20290;-76
2022/10/09 02:07:46;;;;;;;22.33;8.47;;;;;;;8.49;100.00;100363.34;4166112;28;20235;-76
2022/10/09 02:10:15;;;;;;;20.93;7.50;;;;;;;8.43;100.00;100368.22;4175321;28;20250;-75
2022/10/09 02:12:48;;;;;;;18.83;8.53;;;;;;;8.33;100.00;100363.78;4158013;28;20622;-75
2022/10/09 02:15:15;;;;;;;20.70;8.37;;;;;;;8.27;100.00;100359.88;4153656;28;21216;-77
2022/10/09 02:17:46;;;;;;;20.70;9.33;;;;;;;8.21;100.00;100365.69;4162438;28;20235;-75
2022/10/09 02:20:24;;;;;;;19.50;9.03;;;;;;;8.21;100.00;100363.03;4139323;28;20242;-72
2022/10/09 02:22:52;;;;;;;15.73;8.80;;;;;;;8.17;100.00;100364.25;4160304;28;20284;-71
2022/10/09 02:25:19;;;;;;;21.73;9.50;;;;;;;8.15;100.00;100375.00;4162070;28;20244;-71
2022/10/09 02:27:46;;;;;;;18.50;8.83;;;;;;;8.11;100.00;100375.41;4156425;28;20226;-73
2022/10/09 02:30:13;;;;;;;18.50;9.73;;;;;;;8.07;100.00;100379.28;4157795;28;20270;-72
2022/10/09 02:32:40;;;;;;;23.63;10.00;;;;;;;8.00;100.00;100379.78;4167325;28;20300;-72
2022/10/09 02:35:07;;;;;;;19.03;9.77;;;;;;;7.97;100.00;100384.50;4167026;28;20249;-70
2022/10/09 02:37:34;;;;;;;21.40;9.53;;;;;;;7.99;100.00;100383.41;4159772;28;20307;-75
2022/10/09 02:40:00;;;;;;;26.13;10.93;;;;;;;7.89;100.00;100392.25;4160307;28;20323;-71
2022/10/09 02:42:30;;;;;;;24.10;10.97;;;;;;;7.92;100.00;100387.56;4164996;28;22121;-71
2022/10/09 02:44:56;;;;;;;25.03;11.13;;;;;;;7.81;100.00;100401.69;4159593;28;20231;-70
2022/10/09 02:47:23;;;;;;;22.13;10.53;;;;;;;7.86;100.00;100401.31;4161224;28;20424;-71
2022/10/09 02:49:49;;;;;;;18.53;10.40;;;;;;;7.81;100.00;100404.34;4150880;28;20240;-70
2022/10/09 02:52:16;;;;;;;20.57;11.00;;;;;;;7.80;100.00;100404.47;4162424;28;20551;-73
2022/10/09 02:54:42;;;;;;;21.37;10.93;;;;;;;7.73;100.00;100411.25;4160638;28;20357;-74
2022/10/09 02:57:09;;;;;;;28.00;11.20;;;;;;;7.73;100.00;100411.25;4166474;28;21897;-74
2022/10/09 02:59:35;;;;;;;23.93;11.30;;;;;;;7.69;100.00;100412.47;4147423;28;20248;-76
2022/10/09 03:02:03;;;;;;;29.00;11.23;;;;;;;7.64;100.00;100419.97;4156051;28;20299;-73
2022/10/09 03:04:29;;;;;;;25.70;12.43;;;;;;;7.59;100.00;100420.34;4164439;28;21655;-71
2022/10/09 03:06:56;;;;;;;25.53;12.93;;;;;;;7.55;100.00;100422.38;4153066;28;20249;-72
2022/10/09 03:09:22;;;;;;;21.47;11.63;;;;;;;7.65;100.00;100421.63;4147806;28;20657;-71
2022/10/09 03:11:49;;;;;;;26.13;12.10;;;;;;;7.57;100.00;100420.47;4152916;28;20262;-71
2022/10/09 03:14:15;;;;;;;23.87;13.10;;;;;;;7.59;100.00;100426.47;4162032;28;20234;-70
2022/10/09 03:16:42;;;;;;;24.10;12.53;;;;;;;7.53;100.00;100426.13;4145677;28;20341;-72
2022/10/09 03:19:09;;;;;;;22.87;12.70;;;;;;;7.57;100.00;100433.69;4155747;28;20242;-73
2022/10/09 03:21:35;;;;;;;22.13;11.83;;;;;;;7.56;100.00;100439.13;4156752;28;20238;-74
2022/10/09 03:24:03;;;;;;;22.73;12.33;;;;;;;7.47;100.00;100435.44;4157088;28;20813;-71
2022/10/09 03:26:29;;;;;;;30.80;13.23;;;;;;;7.45;100.00;100441.81;4142845;28;20243;-71
2022/10/09 03:28:56;;;;;;;23.00;12.67;;;;;;;7.46;100.00;100446.13;4139335;28;20231;-71
2022/10/09 03:31:24;;;;;;;27.47;13.60;;;;;;;7.43;100.00;100441.09;4160736;28;20743;-74
2022/10/09 03:34:11;;;;;;;31.33;13.87;;;;;;;7.36;100.00;100432.81;4158918;28;21614;-74
2022/10/09 03:36:37;;;;;;;27.10;12.90;;;;;;;7.23;100.00;100432.09;4142204;28;20583;-74
2022/10/09 03:39:04;;;;;;;31.37;13.93;;;;;;;7.29;100.00;100432.47;4154200;28;20685;-71
2022/10/09 03:41:30;;;;;;;26.83;13.13;;;;;;;7.24;100.00;100439.94;4153355;28;20240;-71
2022/10/09 03:43:57;;;;;;;31.57;13.63;;;;;;;7.24;100.00;100437.28;4156493;28;20247;-73
2022/10/09 03:46:23;;;;;;;32.10;13.57;;;;;;;7.21;100.00;100441.97;4154424;28;21182;-71
2022/10/09 03:48:50;;;;;;;26.90;14.20;;;;;;;7.18;100.00;100451.84;4167379;28;20284;-73
2022/10/09 03:51:16;;;;;;;24.77;14.03;;;;;;;7.17;100.00;100458.09;4156297;28;22223;-73
2022/10/09 03:53:43;;;;;;;27.77;14.10;;;;;;;7.10;100.00;100464.03;4170817;28;20238;-72
2022/10/09 03:56:09;;;;;;;25.60;13.07;;;;;;;7.13;100.00;100464.59;4150291;28;20235;-71
2022/10/09 03:58:37;;;;;;;21.93;12.73;;;;;;;7.14;100.00;100466.28;4164692;28;21755;-73
2022/10/09 04:01:04;;;;;;;28.63;13.23;;;;;;;7.14;100.00;100470.72;4170089;28;20242;-71
2022/10/09 04:03:31;;;;;;;27.20;12.70;;;;;;;7.08;100.00;100472.06;4147290;28;25770;-74
2022/10/09 04:05:57;;;;;;;29.03;12.50;;;;;;;7.12;100.00;100473.50;4158960;28;20243;-72
2022/10/09 04:08:23;;;;;;;32.40;13.77;;;;;;;7.20;100.00;100470.25;4166735;28;20613;-74
2022/10/09 04:10:57;;;;;;;25.30;12.50;;;;;;;7.21;100.00;100473.72;4155699;28;20408;-70
2022/10/09 04:13:24;;;;;;;28.07;12.87;;;;;;;7.27;100.00;100470.59;4157978;28;20414;-72
2022/10/09 04:15:51;;;;;;;24.83;12.73;;;;;;;7.29;100.00;100471.31;4156913;28;21760;-71
2022/10/09 04:18:17;;;;;;;24.40;12.10;;;;;;;7.33;100.00;100478.06;4159630;28;20235;-72
2022/10/09 04:20:56;;;;;;;25.30;13.03;;;;;;;7.39;100.00;100482.84;4166807;28;20296;-76
2022/10/09 04:23:25;;;;;;;21.33;13.17;;;;;;;7.45;100.00;100478.88;4162270;28;20416;-71
2022/10/09 04:25:53;;;;;;;24.23;12.97;;;;;;;7.46;100.00;100480.56;4162228;28;20285;-74
2022/10/09 04:28:22;;;;;;;30.53;13.27;;;;;;;7.52;100.00;100480.91;4167612;28;22798;-73
2022/10/09 04:30:49;;;;;;;30.60;13.50;;;;;;;7.55;100.00;100485.94;4159894;28;20340;-72
2022/10/09 04:33:15;;;;;;;28.17;13.10;;;;;;;7.51;100.00;100488.97;4167515;28;20234;-75
2022/10/09 04:35:43;;;;;;;24.17;11.63;;;;;;;7.63;100.00;100487.13;4158359;28;20613;-73
2022/10/09 04:38:10;;;;;;;26.53;12.80;;;;;;;7.66;100.00;100486.91;4171860;28;20237;-74
2022/10/09 04:40:36;;;;;;;28.70;12.17;;;;;;;7.70;100.00;100493.59;4159776;28;26488;-72
2022/10/09 04:43:03;;;;;;;27.37;13.20;;;;;;;7.78;100.00;100499.97;4154687;28;21009;-73
2022/10/09 04:45:29;;;;;;;30.80;12.87;;;;;;;7.81;100.00;100507.66;4155020;28;20682;-73
2022/10/09 04:47:56;;;;;;;26.57;13.27;;;;;;;7.82;100.00;100508.53;4175771;28;20552;-71
2022/10/09 04:50:22;;;;;;;28.30;13.80;;;;;;;7.78;100.00;100513.22;4172381;28;20980;-73
2022/10/09 04:52:49;;;;;;;22.97;14.13;;;;;;;7.82;100.00;100522.59;4160387;28;20236;-71
2022/10/09 04:55:16;;;;;;;30.30;13.97;;;;;;;7.86;100.00;100525.00;4161232;28;20247;-72
2022/10/09 04:57:43;;;;;;;28.70;14.00;;;;;;;7.90;100.00;100526.44;4165805;28;20332;-73
2022/10/09 05:00:10;;;;;;;27.67;14.07;;;;;;;7.89;100.00;100525.59;4160628;28;20245;-71
2022/10/09 05:02:37;;;;;;;29.23;14.03;;;;;;;7.91;100.00;100528.09;4161733;28;20647;-75
2022/10/09 05:05:04;;;;;;;29.93;13.67;;;;;;;7.93;100.00;100534.94;4174425;28;20287;-73
2022/10/09 05:07:30;;;;;;;27.87;14.07;;;;;;;7.92;100.00;100529.78;4163430;28;21601;-74
2022/10/09 05:09:57;;;;;;;27.17;13.70;;;;;;;7.95;100.00;100537.47;4163643;28;20273;-74
2022/10/09 05:12:23;;;;;;;26.83;14.37;;;;;;;7.93;100.00;100537.59;4153824;28;21328;-73
2022/10/09 05:14:50;;;;;;;29.70;15.03;;;;;;;7.98;100.00;100543.38;4163686;28;20239;-72
2022/10/09 05:17:16;;;;;;;25.93;14.10;;;;;;;7.92;100.00;100554.47;4152559;28;20323;-74
2022/10/09 05:19:48;;;;;;;29.47;14.73;;;;;;;7.96;100.00;100555.91;4168996;28;21052;-71
2022/10/09 05:22:15;;;;;;;25.87;13.20;;;;;;;8.01;100.00;100560.84;4160168;28;20391;-71
2022/10/09 05:24:41;;;;;;;25.90;14.33;;;;;;;8.00;100.00;100559.97;4157062;28;20329;-73
2022/10/09 05:27:07;;;;;;;27.03;13.37;;;;;;;7.99;100.00;100565.44;4164275;28;20251;-72
2022/10/09 05:29:34;;;;;;;23.10;14.30;;;;;;;7.98;100.00;100566.38;4171058;28;20237;-72
2022/10/09 05:32:00;;;;;;;28.20;15.20;;;;;;;7.99;100.00;100578.69;4158747;28;20415;-76
2022/10/09 05:34:28;;;;;;;22.73;13.57;;;;;;;8.02;100.00;100575.75;4158252;28;20230;-74
2022/10/09 05:36:54;;;;;;;29.30;13.73;;;;;;;8.10;100.00;100588.38;4156339;28;22861;-71
2022/10/09 05:39:21;;;;;;;30.33;13.83;;;;;;;8.15;100.00;100581.75;4165257;28;22239;-73
2022/10/09 05:41:47;;;;;;;23.73;12.97;;;;;;;8.18;100.00;100585.97;4155369;28;21468;-74
2022/10/09 05:44:13;;;;;;;24.37;13.60;;;;;;;8.19;100.00;100585.84;4164183;28;20245;-73
2022/10/09 05:46:40;;;;;;;25.13;13.50;;;;;;;8.22;100.00;100595.34;4161053;28;20233;-72
2022/10/09 05:49:06;;;;;;;25.07;13.23;;;;;;;8.22;100.00;100600.66;4166432;28;21039;-72
2022/10/09 05:51:36;;;;;;;26.80;13.80;;;;;;;8.27;100.00;100603.75;4146365;28;20326;-73
2022/10/09 05:54:04;;;;;;;22.63;13.53;;;;;;;8.26;100.00;100612.66;4154671;28;20387;-74
2022/10/09 05:56:32;;;;;;;27.53;13.93;;;;;;;8.29;100.00;100606.28;4164319;28;21455;-74
2022/10/09 05:59:01;;;;;;;24.80;14.13;;;;;;;8.31;100.00;100618.47;4154224;28;22445;-72
2022/10/09 06:01:41;;;;;;;25.80;14.27;;;;;;;8.29;100.00;100615.09;4175452;28;21610;-72
2022/10/09 06:04:13;;;;;;;23.93;14.03;;;;;;;8.28;100.00;100621.34;4179157;28;20530;-73
2022/10/09 06:06:40;;;;;;;23.43;14.10;;;;;;;8.28;100.00;100625.81;4184534;28;20234;-77
2022/10/09 06:09:07;;;;;;;26.20;14.87;;;;;;;8.29;100.00;100623.03;4166107;28;20237;-78
2022/10/09 06:11:36;;;;;;;25.90;14.17;;;;;;;8.28;100.00;100637.25;4174634;28;20347;-74
2022/10/09 06:14:08;;;;;;;25.27;15.07;;;;;;;8.38;100.00;100634.69;4184451;28;21697;-76
2022/10/09 06:16:37;;;;;;;30.07;15.47;;;;;;;8.38;100.00;100632.91;4199440;28;20875;-76
2022/10/09 06:19:06;;;;;;;23.60;14.80;;;;;;;8.41;100.00;100639.78;4183774;28;25463;-75
2022/10/09 06:21:33;;;;;;;29.87;14.57;;;;;;;8.43;100.00;100644.00;4174256;28;20239;-75
2022/10/09 06:24:05;;;;;;;23.53;14.63;;;;;;;8.43;100.00;100644.00;4194027;28;20643;-79
2022/10/09 06:26:32;;;;;;;30.93;15.33;;;;;;;8.50;100.00;100643.47;4177453;28;20355;-77
2022/10/09 06:29:00;;;;;;;24.53;15.17;;;;;;;8.54;100.00;100653.69;4171591;28;23591;-78
2022/10/09 06:31:29;;;;;;;25.17;15.13;;;;;;;8.48;100.00;100659.53;4163854;28;22021;-76
2022/10/09 06:33:58;;;;;;;24.37;14.97;;;;;;;8.49;100.00;100660.38;4176572;28;20236;-75
2022/10/09 06:36:27;;;;;;;23.60;14.57;;;;;;;8.56;100.00;100664.19;4182022;28;20389;-76
2022/10/09 06:38:53;;;;;;;18.63;13.17;;;;;;;8.50;100.00;100670.84;4149096;28;20353;-74
2022/10/09 06:41:22;;;;;;;24.73;13.57;;;;;;;8.52;100.00;100678.66;4184345;28;20386;-75
2022/10/09 06:43:54;;;;;;;18.27;12.20;;;;;;;8.58;100.00;100680.84;4160168;28;20504;-76
2022/10/09 06:46:23;;;;;;;16.63;10.43;;;;;;;8.66;100.00;100691.63;4169500;28;20266;-76
2022/10/09 06:48:50;;;;;;;20.03;11.03;;;;;;;8.64;100.00;100696.25;4167566;28;23074;-76
2022/10/09 06:51:19;;;;;;;18.47;11.07;;;;;;;8.66;100.00;100695.16;4173923;28;21140;-76
2022/10/09 06:53:48;;;;;;;18.83;11.20;;;;;;;8.70;100.00;100700.19;4162257;28;22967;-77
2022/10/09 06:56:16;;;;;;;22.23;11.33;;;;;;;8.72;100.00;100701.75;4169918;28;20247;-78
2022/10/09 06:58:43;;;;;;;17.50;10.70;;;;;;;8.72;100.00;100712.38;4165132;28;21726;-77
2022/10/09 07:01:14;;;;;;;17.00;9.00;;;;;;;8.84;100.00;100724.63;4162045;28;20245;-76
2022/10/09 07:03:42;;;;;;;18.80;9.57;;;;;;;8.84;100.00;100721.13;4162935;28;20234;-80
2022/10/09 07:06:15;;;;;;;12.03;8.37;;;;;;;8.83;100.00;100728.25;4178616;28;25064;-78
2022/10/09 07:08:45;;;;;;;10.80;8.10;;;;;;;8.93;100.00;100731.00;4166665;29;22864;-77
2022/10/09 07:11:14;;;;;;;16.37;7.87;;;;;;;8.78;100.00;100735.75;4170570;28;20240;-77
2022/10/09 07:13:41;;;;;;;19.00;7.63;;;;;;;8.98;100.00;100741.22;4163545;28;21204;-78
2022/10/09 07:16:10;;;;;;;12.70;7.60;;;;;;;8.99;100.00;100737.59;4159463;28;20413;-76
2022/10/09 07:18:37;;;;;;;15.30;7.13;;;;;;;9.00;100.00;100736.63;4169849;28;20235;-76
2022/10/09 07:21:05;;;;;;;12.10;7.40;;;;;;;9.06;100.00;100736.97;4155146;29;21302;-77
2022/10/09 07:23:33;;;;;;;14.23;7.13;;;;;;;9.12;100.00;100740.06;4150023;29;21193;-76
2022/10/09 07:26:01;;;;;;;11.20;6.50;;;;;;;9.07;100.00;100751.06;4156495;29;20290;-77
2022/10/09 07:28:29;;;;;;;11.63;6.43;;;;;;;9.02;100.00;100748.81;4158116;28;20334;-75
2022/10/09 07:30:55;;;;;;;11.50;6.73;;;;;;;9.04;100.00;100748.69;4157702;28;20443;-76
2022/10/09 07:33:22;;;;;;;15.87;7.13;;;;;;;9.06;100.00;100749.38;4155553;28;20481;-77
2022/10/09 07:35:55;;;;;;;11.53;6.63;;;;;;;9.19;100.00;100747.41;4162626;28;20241;-76
2022/10/09 07:38:23;;;;;;;12.67;8.43;;;;;;;9.36;100.00;100750.44;4142570;29;20234;-77
2022/10/09 07:40:53;;;;;;;15.63;8.10;;;;;;;9.43;99.96;100755.09;4146077;28;21267;-77
2022/10/09 07:43:20;;;;;;;17.93;8.73;;;;;;;9.49;100.00;100761.72;4159232;28;22199;-76
2022/10/09 07:45:47;;;;;;;17.67;9.00;;;;;;;9.57;100.00;100761.91;4154534;29;20281;-77
2022/10/09 07:48:13;;;;;;;18.43;8.23;;;;;;;9.68;100.00;100766.31;4160033;28;20645;-77
2022/10/09 07:50:40;;;;;;;15.83;9.63;;;;;;;9.64;100.00;100765.72;4154066;28;20245;-77
2022/10/09 07:53:07;;;;;;;23.00;10.30;;;;;;;9.66;100.00;100774.41;4189318;28;20245;-77
2022/10/09 07:55:34;;;;;;;18.63;10.40;;;;;;;9.58;100.00;100770.75;4179087;28;21329;-75
2022/10/09 07:58:01;;;;;;;16.93;9.83;;;;;;;9.64;100.00;100780.84;4161107;28;20244;-77
2022/10/09 08:00:28;;;;;;;17.53;10.10;;;;;;;9.73;100.00;100780.88;4186660;28;20232;-76
2022/10/09 08:02:55;;;;;;;19.30;10.43;;;;;;;9.66;100.00;100774.41;4179072;28;20229;-76
2022/10/09 08:05:22;;;;;;;21.43;11.77;;;;;;;9.64;100.00;100784.31;4173419;28;20637;-78
2022/10/09 08:07:49;;;;;;;18.90;12.70;;;;;;;9.54;100.00;100780.78;4179102;28;20242;-77
2022/10/09 08:10:15;;;;;;;19.47;13.07;;;;;;;9.57;100.00;100793.78;4185167;28;22092;-76
2022/10/09 08:12:42;;;;;;;21.27;12.93;;;;;;;9.47;100.00;100801.69;4157845;28;21543;-76
2022/10/09 08:15:09;;;;;;;22.77;12.40;;;;;;;9.55;100.00;100809.00;4166760;28;21470;-77
2022/10/09 08:17:38;;;;;;;22.40;10.97;;;;;;;9.52;100.00;100802.16;4175028;28;20261;-76
2022/10/09 08:20:06;;;;;;;17.40;9.67;;;;;;;9.55;100.00;100809.00;4162359;28;21619;-75
2022/10/09 08:22:32;;;;;;;15.27;7.90;;;;;;;9.64;99.20;100810.06;4166649;28;20238;-77
2022/10/09 08:24:59;;;;;;;11.43;7.70;;;;;;;9.70;97.92;100818.34;4173094;28;20317;-76
2022/10/09 08:27:25;;;;;;;12.63;6.93;;;;;;;9.72;97.90;100824.41;4183769;28;20965;-75
2022/10/09 08:29:52;;;;;;;13.60;7.20;;;;;;;9.60;97.25;100817.47;4161169;28;20521;-77
2022/10/09 08:32:18;;;;;;;12.83;7.00;;;;;;;9.53;98.62;100816.28;4177819;28;20240;-76
2022/10/09 08:34:46;;;;;;;11.40;6.50;;;;;;;9.57;98.50;100830.97;4171944;28;20246;-77
2022/10/09 08:37:12;;;;;;;12.80;7.17;;;;;;;9.50;98.47;100828.03;4183937;28;21657;-77
2022/10/09 08:39:39;;;;;;;13.90;9.10;;;;;;;9.32;100.00;100824.25;4166181;28;21002;-77
2022/10/09 08:42:06;;;;;;;18.67;9.70;;;;;;;9.22;100.00;100825.94;4186795;28;21108;-75
2022/10/09 08:44:37;;;;;;;18.77;10.33;;;;;;;9.25;100.00;100828.38;4179975;28;22143;-76
2022/10/09 08:47:21;;;;;;;23.73;10.90;;;;;;;9.39;100.00;100835.16;4160530;28;26911;-78
2022/10/09 08:49:55;;;;;;;16.17;9.67;;;;;;;9.44;100.00;100833.00;4177587;28;20340;-78
2022/10/09 08:52:34;;;;;;;16.47;10.13;;;;;;;9.41;100.00;100842.06;4169132;28;20242;-78
2022/10/09 08:55:11;;;;;;;17.40;9.60;;;;;;;9.51;99.81;100842.16;4160218;28;20366;-77
2022/10/09 08:57:38;;;;;;;11.73;8.80;;;;;;;9.66;97.45;100843.50;4183404;28;20642;-76
2022/10/09 09:00:13;;;;;;;14.13;8.30;;;;;;;9.81;96.94;100843.16;4174121;28;20293;-76
2022/10/09 09:03:03;;;;;;;12.43;8.10;;;;;;;9.96;95.39;100841.88;4170287;28;20244;-77
2022/10/09 09:05:39;;;;;;;12.53;7.87;;;;;;;10.10;95.13;100844.19;4157742;28;20247;-76
2022/10/09 09:08:27;;;;;;;12.63;7.70;;;;;;;10.13;94.07;100848.41;4164417;28;20246;-77
2022/10/09 09:11:04;;;;;;;10.83;7.07;;;;;;;10.25;92.33;100850.00;4189565;28;20245;-77
2022/10/09 09:13:43;;;;;;;9.37;7.17;;;;;;;10.01;92.41;100847.66;4180136;28;20231;-75
2022/10/09 09:16:28;;;;;;;11.50;6.80;;;;;;;9.94;92.93;100851.81;4164580;28;20241;-78
2022/10/09 09:19:31;;;;;;;13.47;6.80;;;;;;;10.02;92.88;100854.66;4165293;28;20373;-77
2022/10/09 09:21:58;;;;;;;12.40;5.63;;;;;;;9.79;92.90;100850.47;4158464;28;21692;-79
2022/10/09 09:24:35;;;;;;;14.13;6.10;;;;;;;9.73;94.22;100854.47;4167979;28;20245;-76
2022/10/09 09:27:08;;;;;;;11.50;5.93;;;;;;;9.95;93.70;100858.81;4184491;28;23463;-79
2022/10/09 09:29:39;;;;;;;12.43;5.63;;;;;;;10.17;92.67;100857.81;4184062;28;20419;-78
2022/10/09 09:32:17;;;;;;;8.10;4.83;;;;;;;10.23;91.30;100859.97;4156623;28;21722;-77
2022/10/09 09:34:44;;;;;;;12.40;5.30;;;;;;;10.35;91.10;100869.56;4165922;28;26372;-77
2022/10/09 09:37:11;;;;;;;10.70;5.27;;;;;;;10.43;90.00;100868.06;4191398;28;20234;-80
2022/10/09 09:39:38;;;;;;;9.77;5.10;;;;;;;10.57;88.39;100881.00;4168492;28;21133;-77
2022/10/09 09:42:26;;;;;;;7.27;5.33;;;;;;;10.44;89.29;100873.25;4184408;28;21458;-77
2022/10/09 09:45:02;;;;;;;10.33;5.93;;;;;;;10.31;91.18;100875.28;4177677;28;25307;-77
2022/10/09 09:47:37;;;;;;;12.23;6.30;;;;;;;10.37;90.27;100877.38;4181664;28;20237;-77
2022/10/09 09:50:05;;;;;;;8.87;6.30;;;;;;;10.30;90.87;100878.91;4168323;28;20255;-76
2022/10/09 09:52:37;;;;;;;13.33;6.33;;;;;;;10.31;91.11;100880.59;4182083;28;21127;-77
2022/10/09 09:55:04;;;;;;;14.67;6.43;;;;;;;10.35;92.17;100882.88;4165914;28;20374;-77
2022/10/09 09:57:34;;;;;;;11.07;6.53;;;;;;;10.59;89.18;100892.34;4177111;28;20250;-78
2022/10/09 10:00:15;;;;;;;10.20;5.33;;;;;;;10.76;87.77;100898.84;4153112;28;20359;-77
2022/10/09 10:02:42;;;;;;;10.87;5.70;;;;;;;10.74;88.50;100885.66;4158258;28;20625;-77
2022/10/09 10:05:23;;;;;;;11.03;5.60;;;;;;;10.69;88.49;100895.03;4166743;28;21584;-78
2022/10/09 10:07:50;;;;;;;15.13;7.43;;;;;;;10.51;91.50;100895.69;4172105;28;21533;-78
2022/10/09 10:10:23;;;;;;;11.23;7.00;;;;;;;10.53;93.83;100904.34;4169309;28;20247;-77
2022/10/09 10:12:51;;;;;;;13.40;7.90;;;;;;;10.41;95.06;100900.09;4167734;28;23156;-76
2022/10/09 10:15:25;;;;;;;13.80;8.10;;;;;;;10.18;95.61;100899.38;4173552;28;20546;-76
2022/10/09 10:17:58;;;;;;;16.33;8.97;;;;;;;10.18;95.27;100901.19;4171998;28;20814;-78
2022/10/09 10:20:25;;;;;;;16.80;9.43;;;;;;;10.04;96.26;100900.53;4179402;28;20641;-76
2022/10/09 10:22:54;;;;;;;14.57;9.30;;;;;;;9.96;96.56;100903.03;4174831;28;20319;-80
2022/10/09 10:25:25;;;;;;;19.57;9.50;;;;;;;9.95;96.39;100906.69;4178258;28;20239;-77
2022/10/09 10:27:57;;;;;;;17.33;9.20;;;;;;;9.96;96.49;100908.34;4177076;28;23929;-77
2022/10/09 10:30:23;;;;;;;16.07;9.10;;;;;;;9.99;96.05;100900.09;4177881;28;20243;-78
2022/10/09 10:33:14;;;;;;;14.23;7.27;;;;;;;9.92;94.67;100921.03;4172982;28;20631;-76
2022/10/09 10:35:42;;;;;;;13.67;6.87;;;;;;;10.04;94.20;100916.50;4177204;28;20419;-76
2022/10/09 10:38:23;;;;;;;12.47;5.77;;;;;;;10.14;92.12;100917.44;4167976;28;22405;-77
2022/10/09 10:41:16;;;;;;;8.43;4.47;;;;;;;10.44;90.05;100923.81;4156515;28;20629;-78
2022/10/09 10:43:46;;;;;;;6.33;3.80;;;;;;;10.74;88.14;100930.91;4147656;28;20984;-77
2022/10/09 10:46:24;;;;;;;5.33;3.00;;;;;;;10.70;86.32;100929.53;4164706;28;20233;-77
2022/10/09 10:48:52;;;;;;;8.90;3.23;;;;;;;10.69;86.33;100938.47;4171016;28;20317;-78
2022/10/09 10:52:15;;;;;;;8.80;3.27;;;;;;;10.72;85.88;100937.34;4174429;28;20303;-77
2022/10/09 10:54:54;;;;;;;7.00;3.40;;;;;;;10.78;86.86;100942.16;4133650;29;21023;-78
2022/10/09 10:57:49;;;;;;;9.53;4.13;;;;;;;10.69;87.50;100940.28;4142503;29;20250;-76
2022/10/09 11:00:17;;;;;;;8.93;4.47;;;;;;;10.61;88.27;100940.13;4138386;28;20237;-76
2022/10/09 11:02:47;;;;;;;9.30;5.43;;;;;;;10.55;87.75;100939.66;4158244;28;20233;-77
2022/10/09 11:05:25;;;;;;;13.40;6.10;;;;;;;10.48;90.04;100941.16;4179044;28;20310;-76
2022/10/09 11:08:07;;;;;;;13.60;8.17;;;;;;;10.38;91.27;100942.94;4175403;28;22819;-76
2022/10/09 11:11:03;;;;;;;12.57;7.73;;;;;;;10.32;92.15;100935.47;4163668;28;20237;-78
2022/10/09 11:13:35;;;;;;;12.93;8.27;;;;;;;10.37;92.45;100935.91;4172857;28;23685;-77
2022/10/09 11:16:17;;;;;;;15.33;7.10;;;;;;;10.35;92.17;100938.72;4165673;28;20640;-75
2022/10/09 11:18:59;;;;;;;13.43;7.40;;;;;;;10.55;92.16;100939.66;4164693;28;20238;-78
2022/10/09 11:21:42;;;;;;;15.70;7.40;;;;;;;10.53;91.97;100930.97;4176155;28;21667;-76
2022/10/09 11:24:30;;;;;;;16.20;7.53;;;;;;;10.46;91.50;100932.47;4173159;28;22196;-76
2022/10/09 11:27:05;;;;;;;15.47;7.70;;;;;;;10.65;91.62;100937.06;4155141;28;20310;-76
2022/10/09 11:29:36;;;;;;;12.17;6.97;;;;;;;10.59;90.77;100926.13;4162131;28;20234;-77